Pagrindinis puslapis
METAR-TAF:

METAR-TAF

Oro uostai :

Akaba, Jordanija

platuma: 29-38N, ilguma: 035-01E, Aukštis: 53 m

Dabartinis oras

Ataskaita buvo paskelbta 21 minutes, ne 16:00 UTC
Vėjas 10 kt iš Pietų/Pietvakarių
Temperatūra 30°C
Drėgmė 25%
Slėgis 1008 hPa
Matomumas: 5000 m
migla,

METAR: OJAQ 171600Z 21010KT 5000 HZ NSC 30/08 Q1008 NOSIG

Laikas: 19:21 (16:21 UTC)

Prognozė

Ataskaita buvo paskelbta 5 valandos ir 33 minutes, ne 10:48 UTC
Prognozė galioja nuo 17 metu 12 UTC su 18 metu 18 UTC
Vėjas 8 kt iš Pietų
Matomumas: 6000 m
Laikinai
nuo 17 metu 12 UTC su 17 metu 16 UTC
Vėjas 16 kt iš Pietų
Matomumas: 5000 m
Dulkes pustymas
Tapsmas
nuo 18 metu 09 UTC su 18 metu 11 UTC
Vėjas 8 kt iš Šiaurės

TAF: OJAQ 171048Z 1712/1818 18008KT 6000 NSC TEMPO 1712/1716 18016KT 5000 BLDU BECMG 1809/1811 01008KT

Orai ataskaitas ir orų prognozės (METAR, TAF).

turimą stotys yra geltonos ir raudonos taškus žemėlapyje.

Perkelti pele per norėdami pamatyti stoties vardą.

Tada spustelėkite, norėdami matyti oro stebėjimo ir prognozės.

Norėdami pakeisti žemėlapį: spustelėkite ant žalios mygtukų su juodo kryžiaus žemyn,; žalią mygtuką su brūkšneliu, jei norite nutolinti; arba žalių rodyklių gretimoms žemėlapius.


METAR-TAF: